Time;durP1;ratioP1;P1;durP2;ratioP2;P2;SDS_P1;SDS_P2;PMS_P1;PMS_P2;Temp;Humidity;BMP_temperature;BMP_pressure;BME280_temperature;BME280_humidity;BME280_pressure;Samples;Min_cycle;Max_cycle;Signal;HPM_P1;HPM_P2
2023/07/19 00:00:54;;;;;;;;;;;18.30;99.90;;;;;;8372077;28;19925;-71
2023/07/19 00:04:56;;;;;;;;;;;18.20;99.90;;;;;;8382328;28;20387;-71
2023/07/19 00:08:58;;;;;;;;;;;18.10;99.90;;;;;;8367832;28;19924;-71
2023/07/19 00:12:59;;;;;;;;;;;18.10;99.90;;;;;;8387233;28;19925;-71
2023/07/19 00:17:01;;;;;;;;;;;18.00;99.90;;;;;;8392645;28;19946;-71
2023/07/19 00:21:03;;;;;;;;;;;18.00;99.90;;;;;;8375173;28;19970;-71
2023/07/19 00:25:05;;;;;;;;;;;17.90;99.90;;;;;;8373488;28;20269;-71
2023/07/19 00:29:06;;;;;;;;;;;17.90;99.90;;;;;;8388578;28;19924;-71
2023/07/19 00:33:08;;;;;;;;;;;17.80;99.90;;;;;;8377180;28;19924;-71
2023/07/19 00:37:10;;;;;;;;;;;17.80;99.90;;;;;;8360168;28;19936;-71
2023/07/19 00:41:12;;;;;;;;;;;17.70;99.90;;;;;;8372885;28;20256;-71
2023/07/19 00:45:13;;;;;;;;;;;17.70;99.90;;;;;;8373961;28;19932;-71
2023/07/19 00:49:15;;;;;;;;;;;17.60;99.90;;;;;;8382379;28;19932;-71
2023/07/19 00:53:17;;;;;;;;;;;17.60;99.90;;;;;;8384868;28;19928;-71
2023/07/19 00:57:19;;;;;;;;;;;17.50;99.90;;;;;;8387825;28;19925;-71
2023/07/19 01:01:22;;;;;;;;;;;17.50;99.90;;;;;;8390910;28;20379;-71
2023/07/19 01:05:24;;;;;;;;;;;17.40;99.90;;;;;;8369423;28;19983;-71
2023/07/19 01:09:26;;;;;;;;;;;17.40;99.90;;;;;;8354915;28;19932;-71
2023/07/19 01:13:28;;;;;;;;;;;17.40;99.90;;;;;;8390476;28;19925;-71
2023/07/19 01:17:29;;;;;;;;;;;17.30;99.90;;;;;;8364724;28;19929;-71
2023/07/19 01:21:31;;;;;;;;;;;17.30;99.90;;;;;;8375476;28;19977;-71
2023/07/19 01:25:33;;;;;;;;;;;17.20;99.90;;;;;;8349862;28;20340;-71
2023/07/19 01:29:35;;;;;;;;;;;17.20;99.90;;;;;;8378748;28;19924;-71
2023/07/19 01:33:37;;;;;;;;;;;17.20;99.90;;;;;;8393220;28;20375;-71
2023/07/19 01:37:39;;;;;;;;;;;17.10;99.90;;;;;;8380845;28;19925;-70
2023/07/19 01:41:40;;;;;;;;;;;17.10;99.90;;;;;;8361245;28;19933;-70
2023/07/19 01:45:43;;;;;;;;;;;17.10;99.90;;;;;;8389083;28;20351;-71
2023/07/19 01:49:44;;;;;;;;;;;17.10;99.90;;;;;;8399038;28;19954;-71
2023/07/19 01:53:46;;;;;;;;;;;17.00;99.90;;;;;;8385781;28;19924;-71
2023/07/19 01:57:48;;;;;;;;;;;17.00;99.90;;;;;;8375510;28;19994;-71
2023/07/19 02:01:50;;;;;;;;;;;17.00;99.90;;;;;;8392640;28;19932;-71
2023/07/19 02:05:55;;;;;;;;;;;16.90;99.90;;;;;;8398232;28;19928;-71
2023/07/19 02:09:57;;;;;;;;;;;16.90;99.90;;;;;;8385637;28;20342;-71
2023/07/19 02:13:59;;;;;;;;;;;16.80;99.90;;;;;;8366346;28;20392;-71
2023/07/19 02:18:00;;;;;;;;;;;16.80;99.90;;;;;;8384920;28;19924;-71
2023/07/19 02:22:02;;;;;;;;;;;16.80;99.90;;;;;;8386067;28;19932;-71
2023/07/19 02:26:04;;;;;;;;;;;16.80;99.90;;;;;;8371728;28;19929;-71
2023/07/19 02:30:06;;;;;;;;;;;16.80;99.90;;;;;;8395147;28;20019;-71
2023/07/19 02:34:08;;;;;;;;;;;16.80;99.90;;;;;;8392972;28;19928;-71
2023/07/19 02:38:10;;;;;;;;;;;16.80;99.90;;;;;;8369035;28;19936;-71
2023/07/19 02:42:11;;;;;;;;;;;16.80;99.90;;;;;;8376512;28;19929;-71
2023/07/19 02:46:13;;;;;;;;;;;16.70;99.90;;;;;;8374604;28;20189;-71
2023/07/19 02:50:15;;;;;;;;;;;16.70;99.90;;;;;;8387192;28;20362;-70
2023/07/19 02:54:16;;;;;;;;;;;16.60;99.90;;;;;;8374442;28;20367;-70
2023/07/19 02:58:18;;;;;;;;;;;16.60;99.90;;;;;;8394837;28;19951;-70
2023/07/19 03:02:20;;;;;;;;;;;16.50;99.90;;;;;;8374862;28;19989;-70
2023/07/19 03:06:23;;;;;;;;;;;16.60;99.90;;;;;;8404021;28;19928;-70
2023/07/19 03:10:24;;;;;;;;;;;16.50;99.90;;;;;;8395952;28;19925;-70
2023/07/19 03:14:26;;;;;;;;;;;16.50;99.90;;;;;;8370696;28;19925;-70
2023/07/19 03:18:28;;;;;;;;;;;16.40;99.90;;;;;;8390967;28;19925;-70
2023/07/19 03:22:29;;;;;;;;;;;16.40;99.90;;;;;;8383922;28;19925;-70
2023/07/19 03:26:31;;;;;;;;;;;16.40;99.90;;;;;;8363012;28;19925;-70
2023/07/19 03:30:33;;;;;;;;;;;16.40;99.90;;;;;;8371116;28;20395;-70
2023/07/19 03:34:34;;;;;;;;;;;16.30;99.90;;;;;;8390835;28;19936;-70
2023/07/19 03:38:36;;;;;;;;;;;16.30;99.90;;;;;;8372150;28;19935;-70
2023/07/19 03:42:38;;;;;;;;;;;16.30;99.90;;;;;;8375632;28;19974;-70
2023/07/19 03:46:39;;;;;;;;;;;16.30;99.90;;;;;;8386310;28;19928;-70
2023/07/19 03:50:41;;;;;;;;;;;16.30;99.90;;;;;;8361197;28;20019;-70
2023/07/19 03:54:43;;;;;;;;;;;16.30;99.90;;;;;;8369476;28;19925;-70
2023/07/19 03:58:48;;;;;;;;;;;16.30;99.90;;;;;;8382814;28;20364;-70
2023/07/19 04:02:50;;;;;;;;;;;16.40;99.90;;;;;;8384982;28;20383;-70
2023/07/19 04:06:52;;;;;;;;;;;16.40;99.90;;;;;;8383800;28;20448;-70
2023/07/19 04:10:53;;;;;;;;;;;16.40;99.90;;;;;;8390789;28;19924;-70
2023/07/19 04:14:56;;;;;;;;;;;16.40;99.90;;;;;;8387254;28;19924;-70
2023/07/19 04:18:58;;;;;;;;;;;16.40;99.90;;;;;;8380605;28;19932;-70
2023/07/19 04:22:59;;;;;;;;;;;16.40;99.90;;;;;;8356614;28;19925;-70
2023/07/19 04:27:01;;;;;;;;;;;16.40;99.90;;;;;;8374908;28;19966;-70
2023/07/19 04:31:03;;;;;;;;;;;16.40;99.90;;;;;;8359626;28;20376;-70
2023/07/19 04:35:07;;;;;;;;;;;16.40;99.90;;;;;;8387274;28;19936;-70
2023/07/19 04:39:09;;;;;;;;;;;16.40;99.90;;;;;;8373365;28;19928;-70
2023/07/19 04:43:11;;;;;;;;;;;16.40;99.90;;;;;;8383413;28;19969;-70
2023/07/19 04:47:12;;;;;;;;;;;16.40;99.90;;;;;;8387493;28;20011;-70
2023/07/19 04:51:14;;;;;;;;;;;16.50;99.90;;;;;;8370451;28;20235;-70
2023/07/19 04:55:16;;;;;;;;;;;16.50;99.90;;;;;;8362425;28;19925;-71
2023/07/19 04:59:18;;;;;;;;;;;16.50;99.90;;;;;;8372871;28;19978;-71
2023/07/19 05:03:21;;;;;;;;;;;16.50;99.90;;;;;;8365301;28;19925;-71
2023/07/19 05:07:23;;;;;;;;;;;16.50;99.90;;;;;;8376006;28;19978;-70
2023/07/19 05:11:25;;;;;;;;;;;16.60;99.90;;;;;;8388137;28;19928;-70
2023/07/19 05:15:27;;;;;;;;;;;16.70;99.90;;;;;;8384754;28;20015;-70
2023/07/19 05:19:28;;;;;;;;;;;16.70;99.90;;;;;;8386512;28;20372;-70
2023/07/19 05:23:30;;;;;;;;;;;16.80;99.90;;;;;;8368449;28;19960;-70
2023/07/19 05:27:31;;;;;;;;;;;16.80;99.90;;;;;;8373457;28;20380;-70
2023/07/19 05:31:35;;;;;;;;;;;16.80;99.90;;;;;;8363088;28;20291;-70
2023/07/19 05:35:37;;;;;;;;;;;16.90;99.90;;;;;;8373458;28;19953;-70
2023/07/19 05:39:39;;;;;;;;;;;17.00;99.90;;;;;;8383252;28;20437;-70
2023/07/19 05:43:40;;;;;;;;;;;17.20;99.90;;;;;;8390137;28;19929;-70
2023/07/19 05:47:42;;;;;;;;;;;17.30;99.90;;;;;;8375211;28;19993;-70
2023/07/19 05:51:44;;;;;;;;;;;17.40;99.90;;;;;;8363462;28;19925;-70
2023/07/19 05:55:45;;;;;;;;;;;17.50;99.90;;;;;;8374068;28;19924;-70
2023/07/19 05:59:47;;;;;;;;;;;17.60;99.90;;;;;;8372297;28;19925;-70
2023/07/19 06:03:49;;;;;;;;;;;17.70;99.90;;;;;;8382437;28;20405;-70
2023/07/19 06:07:51;;;;;;;;;;;17.80;99.90;;;;;;8370653;28;19932;-70
2023/07/19 06:11:56;;;;;;;;;;;17.80;99.90;;;;;;8387509;28;19925;-70
2023/07/19 06:15:58;;;;;;;;;;;17.90;99.90;;;;;;8381155;28;19967;-70
2023/07/19 06:20:00;;;;;;;;;;;17.90;99.90;;;;;;8383605;28;19925;-71
2023/07/19 06:24:02;;;;;;;;;;;18.10;99.90;;;;;;8351540;28;19936;-70
2023/07/19 06:28:03;;;;;;;;;;;18.20;99.90;;;;;;8376189;28;19925;-70
2023/07/19 06:32:06;;;;;;;;;;;18.30;99.90;;;;;;8373969;28;19934;-71
2023/07/19 06:36:08;;;;;;;;;;;18.40;99.90;;;;;;8387032;28;19932;-71
2023/07/19 06:40:09;;;;;;;;;;;18.50;99.90;;;;;;8379812;28;20291;-71
2023/07/19 06:44:12;;;;;;;;;;;18.70;99.90;;;;;;8380984;28;19924;-71
2023/07/19 06:48:14;;;;;;;;;;;18.70;99.90;;;;;;8386704;28;19983;-71
2023/07/19 06:52:16;;;;;;;;;;;18.80;99.90;;;;;;8392985;28;19929;-71
2023/07/19 06:56:18;;;;;;;;;;;18.90;99.90;;;;;;8391667;28;19933;-71
2023/07/19 07:00:19;;;;;;;;;;;19.00;99.90;;;;;;8385010;28;19979;-71
2023/07/19 07:04:21;;;;;;;;;;;19.10;99.90;;;;;;8380665;28;19925;-71
2023/07/19 07:08:24;;;;;;;;;;;19.20;99.90;;;;;;8367928;28;19933;-71
2023/07/19 07:27:15;;;;;;;;;;;19.40;99.90;;;;;;8362868;28;19932;-71
2023/07/19 07:31:17;;;;;;;;;;;19.40;99.90;;;;;;8369296;28;19925;-71
2023/07/19 07:35:19;;;;;;;;;;;19.50;99.90;;;;;;8380455;28;19932;-71
2023/07/19 07:39:21;;;;;;;;;;;19.60;99.90;;;;;;8394515;28;19976;-71
2023/07/19 07:43:22;;;;;;;;;;;19.70;99.90;;;;;;8387281;28;19929;-71
2023/07/19 07:47:25;;;;;;;;;;;19.70;99.90;;;;;;8389335;28;19925;-71
2023/07/19 07:51:29;;;;;;;;;;;19.80;99.90;;;;;;8394323;28;19925;-71
2023/07/19 07:55:30;;;;;;;;;;;19.90;99.90;;;;;;8383127;28;19925;-71
2023/07/19 07:59:32;;;;;;;;;;;19.90;99.90;;;;;;8356483;28;19925;-71
2023/07/19 08:03:34;;;;;;;;;;;19.80;99.90;;;;;;8371791;28;19941;-71
2023/07/19 08:07:36;;;;;;;;;;;19.80;99.90;;;;;;8354638;28;20122;-71
2023/07/19 08:11:37;;;;;;;;;;;19.80;99.90;;;;;;8333086;28;19980;-71
2023/07/19 08:15:39;;;;;;;;;;;19.80;99.90;;;;;;8334827;28;20384;-70
2023/07/19 08:19:41;;;;;;;;;;;19.80;99.90;;;;;;8346807;28;20011;-71
2023/07/19 08:23:42;;;;;;;;;;;19.80;99.90;;;;;;8328838;28;19983;-71
2023/07/19 08:27:44;;;;;;;;;;;19.90;99.90;;;;;;8341814;28;19975;-71
2023/07/19 08:31:46;;;;;;;;;;;20.00;99.90;;;;;;8333900;28;19929;-71
2023/07/19 08:35:49;;;;;;;;;;;20.00;99.90;;;;;;8327984;28;19955;-71
2023/07/19 08:39:51;;;;;;;;;;;20.10;99.90;;;;;;8327341;28;19977;-70
2023/07/19 08:43:54;;;;;;;;;;;20.00;99.90;;;;;;8339274;28;19972;-71
2023/07/19 08:47:56;;;;;;;;;;;20.10;99.90;;;;;;8342593;28;20371;-70
2023/07/19 08:51:59;;;;;;;;;;;20.10;99.90;;;;;;8327863;28;19983;-70
2023/07/19 08:56:01;;;;;;;;;;;20.20;99.90;;;;;;8330111;28;19929;-71
2023/07/19 09:00:03;;;;;;;;;;;20.20;99.90;;;;;;8327471;28;19925;-71
2023/07/19 09:04:07;;;;;;;;;;;20.20;99.90;;;;;;8330055;28;19932;-71
2023/07/19 09:08:09;;;;;;;;;;;20.30;99.90;;;;;;8322253;28;19929;-71
2023/07/19 09:12:10;;;;;;;;;;;20.30;99.90;;;;;;8328071;28;20296;-71
2023/07/19 09:16:12;;;;;;;;;;;20.30;99.90;;;;;;8326769;28;19925;-70
2023/07/19 09:20:14;;;;;;;;;;;20.30;99.90;;;;;;8324327;28;20273;-70
2023/07/19 09:34:36;;;;;;;;;;;20.10;99.90;;;;;;8329410;28;19948;-70
2023/07/19 09:38:38;;;;;;;;;;;20.10;99.90;;;;;;8329613;28;19936;-71
2023/07/19 09:42:41;;;;;;;;;;;20.00;99.90;;;;;;8326519;28;19933;-71
2023/07/19 09:46:44;;;;;;;;;;;20.10;99.90;;;;;;8339688;28;20012;-71
2023/07/19 09:50:49;;;;;;;;;;;20.30;99.90;;;;;;8347371;28;20010;-71
2023/07/19 09:54:52;;;;;;;;;;;20.50;99.90;;;;;;8333097;28;19925;-71
2023/07/19 09:58:55;;;;;;;;;;;20.70;99.90;;;;;;8333486;28;19980;-71
2023/07/19 10:02:58;;;;;;;;;;;20.70;99.90;;;;;;8344801;28;19933;-71
2023/07/19 10:07:04;;;;;;;;;;;20.60;99.90;;;;;;8335032;28;20288;-71
2023/07/19 10:11:06;;;;;;;;;;;20.50;99.90;;;;;;8335789;28;19933;-71
2023/07/19 10:15:09;;;;;;;;;;;20.50;99.90;;;;;;8315551;28;19928;-71
2023/07/19 10:19:12;;;;;;;;;;;20.50;99.90;;;;;;8327690;28;19925;-70
2023/07/19 10:23:14;;;;;;;;;;;20.50;99.90;;;;;;8338342;28;19925;-71
2023/07/19 10:27:34;;;;;;;;;;;20.50;99.90;;;;;;8348885;28;20451;-71
2023/07/19 10:31:36;;;;;;;;;;;20.60;99.90;;;;;;8333640;28;20291;-70
2023/07/19 10:35:39;;;;;;;;;;;20.70;99.90;;;;;;8333661;28;19937;-71
2023/07/19 10:39:41;;;;;;;;;;;20.80;99.90;;;;;;8340205;28;20376;-70
2023/07/19 10:43:42;;;;;;;;;;;20.90;99.90;;;;;;8332783;28;19925;-71
2023/07/19 10:47:51;;;;;;;;;;;20.90;99.90;;;;;;8348488;28;19925;-70
2023/07/19 10:51:53;;;;;;;;;;;20.90;99.90;;;;;;8347481;28;19935;-70
2023/07/19 10:55:55;;;;;;;;;;;20.90;99.90;;;;;;8337634;28;19965;-70
2023/07/19 10:59:56;;;;;;;;;;;20.90;99.90;;;;;;8332706;28;20396;-71
2023/07/19 11:04:05;;;;;;;;;;;20.90;99.90;;;;;;8334841;28;19933;-70
2023/07/19 11:08:08;;;;;;;;;;;20.90;99.90;;;;;;8334344;28;19928;-70
2023/07/19 11:12:12;;;;;;;;;;;21.00;99.90;;;;;;8329051;28;20382;-71
2023/07/19 11:16:14;;;;;;;;;;;20.90;99.90;;;;;;8330663;28;19932;-70
2023/07/19 11:20:26;;;;;;;;;;;20.90;99.90;;;;;;8330460;28;20431;-71
2023/07/19 11:24:38;;;;;;;;;;;20.80;99.90;;;;;;8330857;28;19932;-70
2023/07/19 11:28:44;;;;;;;;;;;20.80;99.90;;;;;;8346035;28;19929;-71
2023/07/19 11:33:00;;;;;;;;;;;20.80;99.90;;;;;;8355149;28;20389;-71
2023/07/19 11:37:02;;;;;;;;;;;20.80;99.90;;;;;;8348367;28;19951;-71
2023/07/19 11:41:04;;;;;;;;;;;20.90;99.90;;;;;;8330528;28;19971;-70
2023/07/19 11:45:16;;;;;;;;;;;21.00;99.90;;;;;;8348133;28;19940;-71
2023/07/19 11:49:18;;;;;;;;;;;21.10;99.90;;;;;;8331740;28;19925;-71
2023/07/19 11:53:20;;;;;;;;;;;21.20;99.90;;;;;;8335341;28;20375;-70
2023/07/19 11:57:21;;;;;;;;;;;21.20;99.90;;;;;;8328461;28;20403;-71
2023/07/19 12:01:26;;;;;;;;;;;21.20;99.90;;;;;;8330030;28;19944;-71
2023/07/19 12:05:28;;;;;;;;;;;21.20;99.90;;;;;;8328841;28;19925;-71
2023/07/19 12:09:30;;;;;;;;;;;21.30;99.90;;;;;;8347156;28;19925;-71
2023/07/19 12:13:31;;;;;;;;;;;21.30;99.90;;;;;;8352793;28;19924;-71
2023/07/19 12:17:34;;;;;;;;;;;21.30;99.90;;;;;;8330685;28;20410;-71
2023/07/19 12:21:36;;;;;;;;;;;21.30;99.90;;;;;;8326172;28;19925;-71
2023/07/19 12:25:40;;;;;;;;;;;21.30;99.90;;;;;;8339994;28;20332;-71
2023/07/19 12:29:41;;;;;;;;;;;21.30;99.90;;;;;;8323842;28;19925;-71
2023/07/19 12:33:58;;;;;;;;;;;21.40;99.90;;;;;;8334621;28;19925;-71
2023/07/19 12:38:00;;;;;;;;;;;21.40;99.90;;;;;;8326966;28;19929;-70
2023/07/19 12:42:01;;;;;;;;;;;21.30;99.90;;;;;;8323943;28;19936;-71
2023/07/19 12:46:03;;;;;;;;;;;21.30;99.90;;;;;;8345331;28;19956;-71
2023/07/19 12:50:05;;;;;;;;;;;21.20;99.90;;;;;;8332957;28;20450;-71
2023/07/19 12:54:07;;;;;;;;;;;21.10;99.90;;;;;;8328436;28;19933;-71
2023/07/19 12:58:09;;;;;;;;;;;21.10;99.90;;;;;;8329438;28;19976;-70
2023/07/19 13:02:10;;;;;;;;;;;21.10;99.90;;;;;;8327649;28;20376;-71
2023/07/19 13:06:12;;;;;;;;;;;21.10;99.90;;;;;;8329391;28;19925;-71
2023/07/19 13:10:14;;;;;;;;;;;21.10;99.90;;;;;;8328256;28;20008;-70
2023/07/19 13:14:16;;;;;;;;;;;21.10;99.90;;;;;;8327428;28;20350;-71
2023/07/19 13:18:17;;;;;;;;;;;21.00;99.90;;;;;;8342834;28;19934;-71
2023/07/19 13:22:19;;;;;;;;;;;21.00;99.90;;;;;;8324866;28;19982;-71
2023/07/19 13:26:21;;;;;;;;;;;21.10;99.90;;;;;;8331098;28;20278;-71
2023/07/19 13:30:23;;;;;;;;;;;21.00;99.90;;;;;;8340532;28;19976;-71
2023/07/19 13:34:27;;;;;;;;;;;20.90;99.90;;;;;;8357265;28;19929;-71
2023/07/19 13:38:29;;;;;;;;;;;20.90;99.90;;;;;;8340566;28;19931;-71
2023/07/19 13:42:37;;;;;;;;;;;21.00;99.90;;;;;;8338663;28;20280;-71
2023/07/19 13:46:39;;;;;;;;;;;21.10;99.90;;;;;;8342666;28;19948;-71
2023/07/19 13:50:41;;;;;;;;;;;21.20;99.90;;;;;;8348030;28;19929;-71
2023/07/19 13:54:43;;;;;;;;;;;21.20;99.90;;;;;;8336323;28;19933;-70
2023/07/19 13:58:47;;;;;;;;;;;21.20;99.90;;;;;;8341033;28;19935;-70
2023/07/19 14:02:49;;;;;;;;;;;21.30;99.90;;;;;;8340293;28;19924;-71
2023/07/19 14:06:50;;;;;;;;;;;21.30;99.90;;;;;;8341974;28;19974;-71
2023/07/19 14:10:53;;;;;;;;;;;21.30;99.90;;;;;;8338289;28;19925;-71
2023/07/19 14:14:55;;;;;;;;;;;21.30;99.90;;;;;;8319880;28;19932;-70
2023/07/19 14:18:56;;;;;;;;;;;21.40;99.90;;;;;;8355575;28;19929;-71
2023/07/19 14:22:58;;;;;;;;;;;21.40;99.90;;;;;;8352955;28;19929;-70
2023/07/19 14:27:00;;;;;;;;;;;21.40;99.90;;;;;;8335020;28;20410;-71
2023/07/19 14:31:02;;;;;;;;;;;21.40;99.90;;;;;;8341113;28;20495;-70
2023/07/19 14:35:04;;;;;;;;;;;21.20;99.90;;;;;;8338400;28;20384;-71
2023/07/19 14:39:05;;;;;;;;;;;21.20;99.90;;;;;;8331234;28;19976;-71
2023/07/19 14:43:07;;;;;;;;;;;21.10;99.90;;;;;;8328739;28;19933;-70
2023/07/19 14:47:11;;;;;;;;;;;21.10;99.90;;;;;;8327205;28;20206;-71
2023/07/19 14:51:12;;;;;;;;;;;21.00;99.90;;;;;;8331092;28;19972;-71
2023/07/19 14:55:15;;;;;;;;;;;21.00;99.90;;;;;;8339950;28;20447;-71
2023/07/19 14:59:16;;;;;;;;;;;21.10;99.90;;;;;;8329578;28;19929;-70
2023/07/19 15:03:18;;;;;;;;;;;21.20;99.90;;;;;;8338680;28;19933;-71
2023/07/19 15:07:26;;;;;;;;;;;21.30;99.90;;;;;;8336223;28;19924;-70
2023/07/19 15:11:27;;;;;;;;;;;21.20;99.90;;;;;;8327116;28;20327;-70
2023/07/19 15:15:29;;;;;;;;;;;21.20;99.90;;;;;;8338807;28;20372;-71
2023/07/19 15:19:31;;;;;;;;;;;21.10;99.90;;;;;;8331852;28;19929;-70
2023/07/19 15:23:33;;;;;;;;;;;21.20;99.90;;;;;;8330554;28;19932;-70
2023/07/19 15:27:34;;;;;;;;;;;21.30;99.90;;;;;;8330593;28;20295;-70
2023/07/19 15:31:37;;;;;;;;;;;21.30;99.90;;;;;;8344109;28;19955;-70
2023/07/19 15:35:39;;;;;;;;;;;21.30;99.90;;;;;;8348820;28;19929;-71
2023/07/19 15:39:41;;;;;;;;;;;21.20;99.90;;;;;;8331740;28;20290;-71
2023/07/19 15:43:43;;;;;;;;;;;21.10;99.90;;;;;;8330098;28;19929;-71
2023/07/19 15:47:45;;;;;;;;;;;21.00;99.90;;;;;;8330959;28;19971;-70
2023/07/19 15:51:47;;;;;;;;;;;20.90;99.90;;;;;;8331650;28;20393;-70
2023/07/19 15:55:48;;;;;;;;;;;21.00;99.90;;;;;;8330865;28;20320;-70
2023/07/19 15:59:50;;;;;;;;;;;21.00;99.90;;;;;;8345493;28;19936;-71
2023/07/19 16:03:52;;;;;;;;;;;21.00;99.90;;;;;;8329736;28;19926;-71
2023/07/19 16:07:53;;;;;;;;;;;20.90;99.90;;;;;;8328512;28;19931;-71
2023/07/19 16:11:55;;;;;;;;;;;20.80;99.90;;;;;;8332102;28;19924;-70
2023/07/19 16:15:57;;;;;;;;;;;20.80;99.90;;;;;;8331321;28;19932;-71
2023/07/19 16:19:59;;;;;;;;;;;20.80;99.90;;;;;;8333595;28;20308;-71
2023/07/19 16:24:01;;;;;;;;;;;20.70;99.90;;;;;;8345342;28;19933;-71
2023/07/19 16:28:02;;;;;;;;;;;20.60;99.90;;;;;;8334350;28;19948;-71
2023/07/19 16:32:04;;;;;;;;;;;20.60;99.90;;;;;;8348754;28;19936;-71
2023/07/19 16:36:06;;;;;;;;;;;20.50;99.90;;;;;;8352649;28;19924;-71
2023/07/19 16:40:08;;;;;;;;;;;20.40;99.90;;;;;;8329648;28;19925;-71
2023/07/19 16:44:10;;;;;;;;;;;20.50;99.90;;;;;;8331684;28;20321;-70
2023/07/19 16:48:12;;;;;;;;;;;20.40;99.90;;;;;;8325184;28;20208;-70
2023/07/19 16:52:13;;;;;;;;;;;20.40;99.90;;;;;;8347313;28;19925;-70
2023/07/19 16:56:15;;;;;;;;;;;20.40;99.90;;;;;;8341960;28;19995;-71
2023/07/19 17:00:17;;;;;;;;;;;20.40;99.90;;;;;;8326368;28;20293;-70
2023/07/19 17:04:18;;;;;;;;;;;20.40;99.90;;;;;;8331720;28;20338;-70
2023/07/19 17:08:20;;;;;;;;;;;20.30;99.90;;;;;;8322663;28;20380;-70
2023/07/19 17:12:22;;;;;;;;;;;20.30;99.90;;;;;;8324871;28;19929;-70
2023/07/19 17:16:24;;;;;;;;;;;20.30;99.90;;;;;;8330211;28;20626;-70
2023/07/19 17:20:26;;;;;;;;;;;20.30;99.90;;;;;;8345192;28;20218;-70
2023/07/19 17:24:27;;;;;;;;;;;20.30;99.90;;;;;;8347273;28;20392;-70
2023/07/19 17:28:29;;;;;;;;;;;20.30;99.90;;;;;;8327845;28;19983;-70
2023/07/19 17:32:32;;;;;;;;;;;20.20;99.90;;;;;;8344969;28;20001;-71
2023/07/19 17:36:34;;;;;;;;;;;20.20;99.90;;;;;;8327434;28;19968;-71
2023/07/19 17:40:35;;;;;;;;;;;20.20;99.90;;;;;;8325949;28;19925;-71
2023/07/19 17:44:37;;;;;;;;;;;20.10;99.90;;;;;;8342840;28;19925;-70
2023/07/19 17:48:39;;;;;;;;;;;20.10;99.90;;;;;;8328306;28;19993;-71
2023/07/19 17:52:41;;;;;;;;;;;20.00;99.90;;;;;;8344080;28;19929;-70
2023/07/19 17:56:43;;;;;;;;;;;20.00;99.90;;;;;;8329084;28;19925;-70
2023/07/19 18:00:46;;;;;;;;;;;20.00;99.90;;;;;;8330984;28;19979;-71
2023/07/19 18:04:48;;;;;;;;;;;20.00;99.90;;;;;;8331626;28;19983;-71
2023/07/19 18:08:50;;;;;;;;;;;20.00;99.90;;;;;;8321740;28;20434;-71
2023/07/19 18:12:52;;;;;;;;;;;20.00;99.90;;;;;;8332690;28;20300;-71
2023/07/19 18:16:54;;;;;;;;;;;20.00;99.90;;;;;;8331051;28;19925;-70
2023/07/19 18:20:56;;;;;;;;;;;20.00;99.90;;;;;;8334697;28;19970;-71
2023/07/19 18:24:58;;;;;;;;;;;20.10;99.90;;;;;;8354588;28;19979;-71
2023/07/19 18:28:59;;;;;;;;;;;20.10;99.90;;;;;;8331008;28;19933;-71
2023/07/19 18:33:01;;;;;;;;;;;20.10;99.90;;;;;;8335091;28;19924;-71
2023/07/19 18:37:03;;;;;;;;;;;20.00;99.90;;;;;;8330841;28;19980;-71
2023/07/19 18:41:05;;;;;;;;;;;20.00;99.90;;;;;;8328529;28;24608;-71
2023/07/19 18:45:07;;;;;;;;;;;20.00;99.90;;;;;;8352103;28;19936;-71
2023/07/19 18:49:09;;;;;;;;;;;20.00;99.90;;;;;;8334025;28;19929;-71
2023/07/19 18:53:11;;;;;;;;;;;20.00;99.90;;;;;;8329399;28;19977;-71
2023/07/19 18:57:12;;;;;;;;;;;20.00;99.90;;;;;;8328742;28;19929;-71
2023/07/19 19:01:14;;;;;;;;;;;20.00;99.90;;;;;;8333049;28;19925;-71
2023/07/19 19:05:16;;;;;;;;;;;19.90;99.90;;;;;;8336932;28;20300;-70
2023/07/19 19:09:17;;;;;;;;;;;19.90;99.90;;;;;;8333232;28;19925;-70
2023/07/19 19:13:19;;;;;;;;;;;19.90;99.90;;;;;;8328059;28;19933;-70
2023/07/19 19:17:22;;;;;;;;;;;19.80;99.90;;;;;;8331079;28;19925;-70
2023/07/19 19:21:24;;;;;;;;;;;19.70;99.90;;;;;;8347100;28;19925;-70
2023/07/19 19:25:26;;;;;;;;;;;19.70;99.90;;;;;;8347015;28;20283;-70
2023/07/19 19:29:28;;;;;;;;;;;19.70;99.90;;;;;;8333664;28;20299;-71
2023/07/19 19:33:30;;;;;;;;;;;19.70;99.90;;;;;;8333538;28;20382;-71
2023/07/19 19:37:31;;;;;;;;;;;19.70;99.90;;;;;;8329448;28;19933;-70
2023/07/19 19:47:08;;;;;;;;;;;19.60;99.90;;;;;;8327869;28;20440;-70
2023/07/19 19:51:10;;;;;;;;;;;19.50;99.90;;;;;;8352018;28;19933;-71
2023/07/19 19:55:11;;;;;;;;;;;19.50;99.90;;;;;;8341370;28;20391;-71
2023/07/19 19:59:14;;;;;;;;;;;19.50;99.90;;;;;;8326826;28;20331;-71
2023/07/19 20:03:15;;;;;;;;;;;19.60;99.90;;;;;;8328493;28;19979;-70
2023/07/19 20:07:20;;;;;;;;;;;19.60;99.90;;;;;;8329751;28;19951;-70
2023/07/19 20:11:22;;;;;;;;;;;19.60;99.90;;;;;;8349383;28;19926;-70
2023/07/19 20:15:24;;;;;;;;;;;19.60;99.90;;;;;;8329134;28;19928;-70
2023/07/19 20:19:26;;;;;;;;;;;19.60;99.90;;;;;;8340162;28;20292;-71
2023/07/19 20:23:30;;;;;;;;;;;19.50;99.90;;;;;;8332983;28;20388;-71
2023/07/19 20:27:32;;;;;;;;;;;19.50;99.90;;;;;;8331256;28;19931;-71
2023/07/19 20:31:41;;;;;;;;;;;19.50;99.90;;;;;;8348023;28;19995;-71
2023/07/19 20:35:46;;;;;;;;;;;19.50;99.90;;;;;;8328458;28;19932;-71
2023/07/19 20:39:50;;;;;;;;;;;19.40;99.90;;;;;;8327700;28;19929;-71
2023/07/19 20:43:52;;;;;;;;;;;19.40;99.90;;;;;;8346268;28;19987;-71
2023/07/19 20:48:00;;;;;;;;;;;19.30;99.90;;;;;;8343368;28;20328;-71
2023/07/19 20:52:02;;;;;;;;;;;19.30;99.90;;;;;;8330805;28;19925;-71
2023/07/19 20:56:04;;;;;;;;;;;19.20;99.90;;;;;;8327864;28;20038;-71
2023/07/19 21:00:06;;;;;;;;;;;19.20;99.90;;;;;;8340050;28;19932;-71
2023/07/19 21:04:08;;;;;;;;;;;19.10;99.90;;;;;;8369394;28;19924;-71
2023/07/19 21:08:10;;;;;;;;;;;19.10;99.90;;;;;;8355326;28;19933;-71
2023/07/19 21:12:12;;;;;;;;;;;19.10;99.90;;;;;;8373648;28;20290;-71
2023/07/19 21:16:14;;;;;;;;;;;19.00;99.90;;;;;;8362317;28;20355;-71
2023/07/19 21:20:15;;;;;;;;;;;19.00;99.90;;;;;;8372064;28;19969;-70
2023/07/19 21:24:17;;;;;;;;;;;19.00;99.90;;;;;;8373525;28;19925;-70
2023/07/19 21:28:18;;;;;;;;;;;18.90;99.90;;;;;;8379595;28;19932;-70
2023/07/19 21:32:20;;;;;;;;;;;18.90;99.90;;;;;;8365956;28;19928;-70
2023/07/19 21:36:23;;;;;;;;;;;18.90;99.90;;;;;;8388581;28;19928;-70
2023/07/19 21:40:25;;;;;;;;;;;18.90;99.90;;;;;;8369225;28;19931;-70
2023/07/19 21:44:27;;;;;;;;;;;18.90;99.90;;;;;;8373073;28;19925;-71
2023/07/19 21:48:28;;;;;;;;;;;18.80;99.90;;;;;;8369806;28;19932;-71
2023/07/19 21:52:30;;;;;;;;;;;18.80;99.90;;;;;;8368174;28;20027;-70
2023/07/19 21:56:32;;;;;;;;;;;18.70;99.90;;;;;;8380708;28;19929;-70
2023/07/19 22:00:37;;;;;;;;;;;18.70;99.90;;;;;;8391117;28;19924;-70
2023/07/19 22:04:39;;;;;;;;;;;18.70;99.90;;;;;;8390063;28;19928;-70
2023/07/19 22:08:41;;;;;;;;;;;18.70;99.90;;;;;;8395670;28;19970;-70
2023/07/19 22:12:44;;;;;;;;;;;18.60;99.90;;;;;;8399383;28;19924;-70
2023/07/19 22:16:48;;;;;;;;;;;18.60;99.90;;;;;;8383032;28;19924;-70
2023/07/19 22:20:54;;;;;;;;;;;18.60;99.90;;;;;;8391577;28;19963;-70
2023/07/19 22:25:02;;;;;;;;;;;18.60;99.90;;;;;;8389065;28;19978;-70
2023/07/19 22:29:04;;;;;;;;;;;18.50;99.90;;;;;;8356298;28;19983;-70
2023/07/19 22:33:06;;;;;;;;;;;18.50;99.90;;;;;;8373574;28;19924;-70
2023/07/19 22:37:09;;;;;;;;;;;18.50;99.90;;;;;;8382069;28;20148;-70
2023/07/19 22:41:10;;;;;;;;;;;18.40;99.90;;;;;;8381290;28;19929;-70
2023/07/19 22:45:12;;;;;;;;;;;18.40;99.90;;;;;;8371171;28;20375;-70
2023/07/19 22:49:14;;;;;;;;;;;18.40;99.90;;;;;;8389937;28;20303;-70
2023/07/19 22:53:15;;;;;;;;;;;18.40;99.90;;;;;;8408646;28;19928;-70
2023/07/19 22:57:17;;;;;;;;;;;18.30;99.90;;;;;;8371117;28;20376;-70
2023/07/19 23:01:19;;;;;;;;;;;18.30;99.90;;;;;;8371593;28;20260;-71
2023/07/19 23:05:21;;;;;;;;;;;18.30;99.90;;;;;;8378225;28;19990;-71
2023/07/19 23:19:29;;;;;;;;;;;18.30;99.90;;;;;;8376305;28;19923;-70
2023/07/19 23:33:31;;;;;;;;;;;18.30;99.90;;;;;;8388901;28;19970;-70
2023/07/19 23:37:32;;;;;;;;;;;18.30;99.90;;;;;;8390364;28;19936;-70
2023/07/19 23:41:34;;;;;;;;;;;18.30;99.90;;;;;;8364541;28;19932;-70
2023/07/19 23:45:36;;;;;;;;;;;18.30;99.90;;;;;;8375773;28;19925;-70
2023/07/19 23:49:37;;;;;;;;;;;18.30;99.90;;;;;;8370275;28;19975;-70
2023/07/19 23:53:39;;;;;;;;;;;18.30;99.90;;;;;;8387408;28;19929;-70
2023/07/19 23:57:41;;;;;;;;;;;18.30;99.90;;;;;;8384595;28;19937;-70
